createdAt,value
2023-05-15T00:00:55.610Z,14.68
2023-05-15T00:05:59.293Z,14.60
2023-05-15T00:11:02.441Z,14.54
2023-05-15T00:16:08.262Z,14.49
2023-05-15T00:21:12.152Z,14.43
2023-05-15T00:26:15.908Z,14.34
2023-05-15T00:31:28.253Z,14.28
2023-05-15T00:36:31.907Z,14.22
2023-05-15T00:41:37.992Z,14.15
2023-05-15T00:46:45.137Z,14.10
2023-05-15T00:51:48.313Z,14.07
2023-05-15T00:56:52.803Z,14.02
2023-05-15T01:01:58.101Z,13.99
2023-05-15T01:07:01.996Z,13.99
2023-05-15T01:12:37.022Z,13.97
2023-05-15T01:17:49.546Z,13.95
2023-05-15T01:23:15.342Z,13.94
2023-05-15T01:28:33.063Z,13.89
2023-05-15T01:39:33.492Z,13.79
2023-05-15T01:44:58.744Z,13.76
2023-05-15T01:50:07.776Z,13.71
2023-05-15T01:55:16.769Z,13.67
2023-05-15T02:00:25.278Z,13.62
2023-05-15T02:05:34.731Z,13.60
2023-05-15T02:16:20.293Z,13.54
2023-05-15T02:21:29.679Z,13.49
2023-05-15T02:26:45.660Z,13.45
2023-05-15T02:32:08.308Z,13.43
2023-05-15T02:37:23.141Z,13.41
2023-05-15T02:42:45.041Z,13.37
2023-05-15T02:47:51.703Z,13.34
2023-05-15T02:53:03.269Z,13.36
2023-05-15T02:58:06.910Z,13.37
2023-05-15T03:03:11.833Z,13.37
2023-05-15T03:08:15.335Z,13.35
2023-05-15T03:13:18.466Z,13.37
2023-05-15T03:18:23.067Z,13.38
2023-05-15T03:23:26.278Z,13.36
2023-05-15T03:28:29.446Z,13.35
2023-05-15T03:33:34.450Z,13.35
2023-05-15T03:38:38.282Z,13.35
2023-05-15T03:43:41.685Z,13.33
2023-05-15T03:48:46.450Z,13.34
2023-05-15T03:53:49.991Z,13.34
2023-05-15T03:58:53.288Z,13.36
2023-05-15T04:04:00.989Z,13.42
2023-05-15T04:09:04.845Z,13.44
2023-05-15T04:14:08.448Z,13.51
2023-05-15T04:19:16.940Z,13.57
2023-05-15T04:24:20.342Z,13.61
2023-05-15T04:29:24.265Z,13.65
2023-05-15T04:34:29.844Z,13.71
2023-05-15T04:39:36.621Z,13.77
2023-05-15T04:44:45.714Z,13.83
2023-05-15T04:49:50.753Z,13.90
2023-05-15T04:54:55.893Z,13.90
2023-05-15T04:59:59.220Z,13.94
2023-05-15T05:05:07.441Z,14.05
2023-05-15T05:10:11.782Z,14.06
2023-05-15T05:15:17.941Z,14.20
2023-05-15T05:20:22.424Z,14.34
2023-05-15T05:25:28.018Z,14.53
2023-05-15T05:30:31.187Z,14.71
2023-05-15T05:35:40.240Z,14.97
2023-05-15T05:40:43.923Z,15.20
2023-05-15T05:45:47.253Z,15.39
2023-05-15T05:50:52.346Z,15.71
2023-05-15T05:55:55.796Z,15.99
2023-05-15T06:00:59.426Z,16.35
2023-05-15T06:06:04.039Z,16.39
2023-05-15T06:11:07.212Z,16.59
2023-05-15T06:16:10.663Z,16.72
2023-05-15T06:21:15.155Z,17.02
2023-05-15T06:26:18.453Z,17.50
2023-05-15T06:31:21.760Z,18.48
2023-05-15T06:36:26.544Z,19.96
2023-05-15T06:41:29.740Z,22.67
2023-05-15T06:46:32.939Z,22.71
2023-05-15T06:51:37.463Z,22.25
2023-05-15T06:56:40.609Z,23.49
2023-05-15T07:01:43.994Z,23.36
2023-05-15T07:06:50.400Z,23.70
2023-05-15T07:11:54.442Z,24.06
2023-05-15T07:16:57.728Z,25.28
2023-05-15T07:22:03.333Z,26.00
2023-05-15T07:27:07.364Z,25.35
2023-05-15T07:32:10.563Z,25.16
2023-05-15T07:37:16.862Z,25.43
2023-05-15T07:42:27.436Z,25.23
2023-05-15T07:47:30.766Z,25.16
2023-05-15T07:52:35.411Z,25.22
2023-05-15T07:57:40.793Z,25.17
2023-05-15T08:02:46.438Z,25.05
2023-05-15T08:07:51.478Z,24.91
2023-05-15T08:12:54.800Z,24.92
2023-05-15T08:17:58.193Z,24.73
2023-05-15T08:23:03.021Z,24.72
2023-05-15T08:28:06.984Z,24.64
2023-05-15T08:33:10.419Z,24.62
2023-05-15T08:38:15.286Z,24.61
2023-05-15T08:43:19.671Z,24.52
2023-05-15T08:48:26.051Z,24.51
2023-05-15T08:53:31.030Z,24.54
2023-05-15T08:58:34.958Z,24.55
2023-05-15T09:03:38.500Z,24.41
2023-05-15T09:08:44.977Z,24.35
2023-05-15T09:13:48.097Z,24.37
2023-05-15T09:18:51.498Z,24.24
2023-05-15T09:23:57.031Z,24.28
2023-05-15T09:29:03.999Z,24.23
2023-05-15T09:34:09.459Z,24.14
2023-05-15T09:39:14.178Z,24.01
2023-05-15T09:44:21.810Z,23.81
2023-05-15T09:49:25.333Z,23.77
2023-05-15T09:54:31.384Z,23.75
2023-05-15T09:59:34.710Z,23.69
2023-05-15T10:04:37.949Z,23.68
2023-05-15T10:09:42.577Z,23.64
2023-05-15T10:14:46.634Z,23.55
2023-05-15T10:19:58.362Z,23.67
2023-05-15T10:25:10.306Z,23.72
2023-05-15T10:30:16.884Z,23.80
2023-05-15T10:35:20.275Z,24.11
2023-05-15T10:40:26.133Z,24.36
2023-05-15T10:45:30.451Z,24.43
2023-05-15T10:50:33.878Z,24.40
2023-05-15T10:55:38.781Z,24.31
2023-05-15T11:00:44.679Z,24.29
2023-05-15T11:06:10.886Z,24.19
2023-05-15T11:11:43.706Z,24.23
2023-05-15T11:17:05.098Z,24.25
2023-05-15T11:22:19.800Z,24.62
2023-05-15T11:27:26.317Z,24.66
2023-05-15T11:32:45.854Z,24.74
2023-05-15T11:37:51.304Z,24.65
2023-05-15T11:43:02.287Z,24.26
2023-05-15T11:48:09.497Z,24.29
2023-05-15T11:53:13.523Z,24.13
2023-05-15T11:58:18.572Z,23.88
2023-05-15T12:03:25.856Z,23.59
2023-05-15T12:08:33.733Z,23.32
2023-05-15T12:13:37.180Z,23.10
2023-05-15T12:18:42.036Z,23.06
2023-05-15T12:24:03.396Z,23.08
2023-05-15T12:29:10.523Z,23.26
2023-05-15T12:34:15.920Z,23.60
2023-05-15T12:39:19.168Z,23.90
2023-05-15T12:44:22.255Z,24.06
2023-05-15T12:49:26.923Z,24.06
2023-05-15T12:54:30.532Z,24.10
2023-05-15T12:59:33.857Z,24.26
2023-05-15T13:04:38.910Z,24.33
2023-05-15T13:09:46.480Z,24.35
2023-05-15T13:14:49.781Z,24.31
2023-05-15T13:19:54.472Z,24.18
2023-05-15T13:24:58.885Z,24.11
2023-05-15T13:30:02.946Z,24.11
2023-05-15T13:35:09.971Z,23.80
2023-05-15T13:40:14.370Z,23.40
2023-05-15T13:45:18.002Z,22.96
2023-05-15T13:50:22.846Z,22.32
2023-05-15T13:55:27.502Z,21.69
2023-05-15T14:00:30.775Z,21.31
2023-05-15T14:05:35.534Z,21.11
2023-05-15T14:10:39.087Z,21.01
2023-05-15T14:15:42.309Z,20.93
2023-05-15T14:20:46.873Z,20.91
2023-05-15T14:25:50.058Z,21.01
2023-05-15T14:30:53.344Z,21.06
2023-05-15T14:35:58.095Z,21.18
2023-05-15T14:41:01.643Z,21.27
2023-05-15T14:46:05.102Z,21.38
2023-05-15T14:51:09.778Z,21.34
2023-05-15T14:56:12.967Z,21.37
2023-05-15T15:01:16.545Z,21.36
2023-05-15T15:06:21.061Z,21.31
2023-05-15T15:11:24.350Z,21.30
2023-05-15T15:16:30.542Z,21.28
2023-05-15T15:21:36.701Z,21.24
2023-05-15T15:26:40.476Z,21.14
2023-05-15T15:31:44.052Z,21.09
2023-05-15T15:36:48.948Z,21.03
2023-05-15T15:41:52.541Z,21.12
2023-05-15T15:46:55.874Z,21.24
2023-05-15T15:52:00.952Z,21.34
2023-05-15T15:57:05.790Z,21.36
2023-05-15T16:02:09.976Z,21.32
2023-05-15T16:07:18.094Z,21.28
2023-05-15T16:12:21.597Z,21.16
2023-05-15T16:17:25.985Z,21.03
2023-05-15T16:22:31.384Z,20.91
2023-05-15T16:27:34.483Z,20.79
2023-05-15T16:32:41.274Z,20.72
2023-05-15T16:37:48.736Z,20.61
2023-05-15T16:42:52.481Z,20.60
2023-05-15T16:47:56.534Z,20.59
2023-05-15T16:53:02.334Z,20.57
2023-05-15T16:58:05.755Z,20.60
2023-05-15T17:03:09.391Z,20.70
2023-05-15T17:08:14.067Z,20.71
2023-05-15T17:13:20.435Z,20.73
2023-05-15T17:18:24.211Z,20.73
2023-05-15T17:23:28.805Z,20.76
2023-05-15T17:28:32.748Z,20.76
2023-05-15T17:33:36.040Z,20.78
2023-05-15T17:38:40.950Z,20.80
2023-05-15T17:43:44.466Z,20.81
2023-05-15T17:48:48.071Z,20.75
2023-05-15T17:53:52.973Z,20.63
2023-05-15T17:58:56.679Z,20.54
2023-05-15T18:04:00.315Z,20.45
2023-05-15T18:09:05.494Z,20.37
2023-05-15T18:14:08.768Z,20.34
2023-05-15T18:19:11.988Z,20.34
2023-05-15T18:24:16.695Z,20.31
2023-05-15T18:29:20.034Z,20.28
2023-05-15T18:34:23.450Z,20.21
2023-05-15T18:39:28.480Z,20.15
2023-05-15T18:44:34.855Z,20.10
2023-05-15T18:49:38.276Z,20.04
2023-05-15T18:54:43.138Z,19.99
2023-05-15T18:59:47.823Z,19.87
2023-05-15T19:04:51.280Z,19.81
2023-05-15T19:09:55.991Z,19.73
2023-05-15T19:14:59.269Z,19.65
2023-05-15T19:20:02.751Z,19.55
2023-05-15T19:25:08.540Z,19.41
2023-05-15T19:30:12.462Z,19.31
2023-05-15T19:35:16.090Z,19.20
2023-05-15T19:40:20.909Z,19.07
2023-05-15T19:45:24.563Z,18.92
2023-05-15T19:50:28.061Z,18.77
2023-05-15T19:55:32.874Z,18.64
2023-05-15T20:00:36.556Z,18.54
2023-05-15T20:05:41.800Z,18.43
2023-05-15T20:10:52.210Z,18.35
2023-05-15T20:15:57.166Z,18.29
2023-05-15T20:21:00.921Z,18.25
2023-05-15T20:26:05.691Z,18.21
2023-05-15T20:31:09.016Z,18.17
2023-05-15T20:36:12.535Z,18.12
2023-05-15T20:41:17.726Z,18.07
2023-05-15T20:46:21.308Z,17.99
2023-05-15T20:51:24.660Z,17.86
2023-05-15T20:56:29.295Z,17.74
2023-05-15T21:01:32.991Z,17.62
2023-05-15T21:06:37.052Z,17.51
2023-05-15T21:11:41.601Z,17.40
2023-05-15T21:16:44.974Z,17.31
2023-05-15T21:21:48.260Z,17.20
2023-05-15T21:26:53.408Z,17.09
2023-05-15T21:31:57.048Z,17.02
2023-05-15T21:37:00.400Z,16.92
2023-05-15T21:42:06.373Z,16.83
2023-05-15T21:47:09.556Z,16.77
2023-05-15T21:52:12.753Z,16.68
2023-05-15T21:57:17.273Z,16.58
2023-05-15T22:02:20.475Z,16.48
2023-05-15T22:07:23.816Z,16.41
2023-05-15T22:12:28.458Z,16.34
2023-05-15T22:17:32.093Z,16.23
2023-05-15T22:22:35.539Z,16.15
2023-05-15T22:27:40.328Z,16.05
2023-05-15T22:32:43.918Z,15.96
2023-05-15T22:37:47.418Z,15.89
2023-05-15T22:42:52.715Z,15.82
2023-05-15T22:47:55.991Z,15.74
2023-05-15T22:52:59.417Z,15.67
2023-05-15T22:58:04.130Z,15.61
2023-05-15T23:03:07.880Z,15.52
2023-05-15T23:08:11.329Z,15.44
2023-05-15T23:13:15.880Z,15.38
2023-05-15T23:18:19.575Z,15.32
2023-05-15T23:23:22.905Z,15.23
2023-05-15T23:28:27.753Z,15.16
2023-05-15T23:33:31.160Z,15.11
2023-05-15T23:38:34.598Z,15.02
2023-05-15T23:43:39.218Z,14.95
2023-05-15T23:48:42.573Z,14.86
2023-05-15T23:53:45.754Z,14.79
2023-05-15T23:58:50.526Z,14.71
